createdAt,value
2023-03-04T00:01:38.701Z,9.07
2023-03-04T00:04:11.382Z,6.97
2023-03-04T00:06:42.525Z,11.32
2023-03-04T00:09:15.356Z,7.53
2023-03-04T00:11:45.263Z,6.63
2023-03-04T00:14:12.010Z,6.82
2023-03-04T00:16:38.968Z,9.13
2023-03-04T00:19:09.687Z,8.60
2023-03-04T00:21:36.483Z,7.53
2023-03-04T00:24:09.910Z,11.18
2023-03-04T00:26:36.653Z,12.10
2023-03-04T00:29:03.405Z,8.90
2023-03-04T00:31:36.333Z,9.80
2023-03-04T00:34:03.441Z,5.10
2023-03-04T00:36:30.278Z,9.95
2023-03-04T00:38:57.008Z,8.95
2023-03-04T00:41:23.638Z,4.60
2023-03-04T00:43:53.094Z,7.90
2023-03-04T00:46:19.803Z,6.50
2023-03-04T00:48:49.120Z,6.75
2023-03-04T00:51:15.933Z,12.10
2023-03-04T00:53:46.037Z,16.02
2023-03-04T00:56:15.649Z,12.43
2023-03-04T00:58:45.542Z,5.18
2023-03-04T01:01:12.365Z,12.00
2023-03-04T01:03:47.764Z,8.88
2023-03-04T01:06:18.890Z,7.50
2023-03-04T01:08:45.956Z,6.85
2023-03-04T01:11:32.263Z,7.63
2023-03-04T01:14:04.974Z,7.35
2023-03-04T01:16:35.193Z,7.10
2023-03-04T01:21:48.923Z,7.97
2023-03-04T01:24:24.821Z,20.63
2023-03-04T01:27:12.721Z,9.05
2023-03-04T01:29:43.341Z,7.28
2023-03-04T01:32:13.133Z,12.70
2023-03-04T01:34:42.516Z,9.95
2023-03-04T01:37:20.914Z,7.07
2023-03-04T01:39:50.234Z,6.90
2023-03-04T01:42:23.300Z,6.53
2023-03-04T01:44:57.481Z,10.25
2023-03-04T01:47:33.299Z,8.75
2023-03-04T01:50:12.587Z,7.97
2023-03-04T01:52:51.085Z,9.85
2023-03-04T01:55:22.687Z,11.30
2023-03-04T01:57:52.606Z,8.00
2023-03-04T02:00:35.165Z,10.25
2023-03-04T02:03:15.607Z,10.93
2023-03-04T02:05:51.943Z,8.18
2023-03-04T02:08:23.837Z,8.95
2023-03-04T02:10:59.920Z,7.55
2023-03-04T02:13:27.162Z,6.25
2023-03-04T02:15:55.918Z,8.65
2023-03-04T02:18:24.729Z,7.35
2023-03-04T02:21:30.774Z,8.02
2023-03-04T02:24:35.038Z,7.07
2023-03-04T02:27:01.926Z,11.95
2023-03-04T02:29:29.589Z,6.68
2023-03-04T02:31:56.905Z,5.88
2023-03-04T02:34:54.459Z,6.15
2023-03-04T02:37:21.972Z,9.30
2023-03-04T02:39:50.307Z,7.13
2023-03-04T02:42:18.553Z,10.30
2023-03-04T02:44:50.336Z,9.77
2023-03-04T02:47:19.103Z,9.50
2023-03-04T02:49:48.567Z,5.68
2023-03-04T02:52:26.576Z,6.70
2023-03-04T02:54:59.488Z,7.40
2023-03-04T02:57:30.559Z,8.07
2023-03-04T02:59:57.282Z,4.82
2023-03-04T03:02:35.876Z,10.68
2023-03-04T03:05:03.003Z,14.13
2023-03-04T03:07:38.000Z,8.77
2023-03-04T03:10:05.753Z,7.82
2023-03-04T03:12:32.489Z,9.63
2023-03-04T03:15:01.756Z,8.00
2023-03-04T03:17:28.665Z,9.13
2023-03-04T03:19:55.413Z,5.80
2023-03-04T03:22:25.956Z,9.40
2023-03-04T03:24:52.853Z,6.68
2023-03-04T03:27:19.496Z,4.57
2023-03-04T03:29:46.206Z,11.38
2023-03-04T03:32:15.964Z,7.65
2023-03-04T03:34:50.863Z,7.85
2023-03-04T03:37:23.327Z,7.85
2023-03-04T03:39:53.009Z,9.75
2023-03-04T03:42:31.961Z,6.30
2023-03-04T03:45:14.448Z,11.57
2023-03-04T03:47:49.107Z,11.07
2023-03-04T03:50:26.259Z,15.52
2023-03-04T03:53:05.937Z,11.18
2023-03-04T03:55:32.963Z,13.05
2023-03-04T03:58:01.753Z,9.75
2023-03-04T04:00:30.727Z,6.95
2023-03-04T04:03:03.595Z,16.30
2023-03-04T04:05:38.668Z,6.72
2023-03-04T04:08:05.664Z,15.55
2023-03-04T04:10:35.442Z,12.23
2023-03-04T04:13:04.550Z,10.05
2023-03-04T04:15:31.257Z,13.52
2023-03-04T04:17:58.005Z,16.05
2023-03-04T04:20:36.148Z,10.82
2023-03-04T04:23:07.676Z,10.25
2023-03-04T04:25:34.529Z,11.57
2023-03-04T04:28:01.314Z,21.08
2023-03-04T04:30:28.091Z,12.98
2023-03-04T04:33:01.875Z,13.32
2023-03-04T04:35:28.835Z,18.98
2023-03-04T04:37:58.212Z,13.30
2023-03-04T04:40:28.098Z,13.45
2023-03-04T04:43:20.615Z,14.73
2023-03-04T04:45:47.570Z,10.98
2023-03-04T04:48:21.113Z,16.98
2023-03-04T04:51:06.421Z,20.45
2023-03-04T04:53:33.293Z,13.35
2023-03-04T04:56:30.069Z,18.20
2023-03-04T04:59:18.752Z,11.45
2023-03-04T05:01:51.109Z,19.13
2023-03-04T05:04:25.521Z,20.05
2023-03-04T05:06:52.267Z,12.57
2023-03-04T05:09:25.397Z,17.38
2023-03-04T05:11:52.130Z,13.13
2023-03-04T05:14:22.330Z,14.00
2023-03-04T05:16:49.038Z,10.60
2023-03-04T05:19:21.372Z,19.20
2023-03-04T05:21:50.975Z,18.85
2023-03-04T05:24:17.917Z,16.42
2023-03-04T05:26:44.771Z,14.13
2023-03-04T05:29:11.737Z,16.95
2023-03-04T05:31:52.536Z,18.15
2023-03-04T05:34:24.315Z,10.93
2023-03-04T05:36:51.400Z,13.52
2023-03-04T05:39:31.211Z,14.68
2023-03-04T05:41:58.048Z,11.75
2023-03-04T05:44:24.892Z,18.65
2023-03-04T05:46:53.987Z,11.15
2023-03-04T05:49:30.897Z,16.17
2023-03-04T05:52:23.129Z,15.80
2023-03-04T05:54:51.215Z,12.70
2023-03-04T05:57:26.891Z,16.65
2023-03-04T05:59:59.653Z,13.98
2023-03-04T06:02:29.640Z,16.95
2023-03-04T06:05:02.502Z,15.45
2023-03-04T06:07:38.509Z,11.73
2023-03-04T06:54:35.501Z,20.13
2023-03-04T07:35:24.443Z,16.10
2023-03-04T07:37:51.337Z,18.77
2023-03-04T07:40:30.486Z,14.25
2023-03-04T07:43:09.448Z,12.98
2023-03-04T07:45:42.085Z,16.77
2023-03-04T07:48:08.947Z,14.35
2023-03-04T07:50:35.669Z,16.83
2023-03-04T07:53:07.308Z,18.77
2023-03-04T07:55:34.261Z,12.05
2023-03-04T07:58:02.629Z,14.18
2023-03-04T08:00:33.820Z,13.35
2023-03-04T08:03:03.591Z,19.10
2023-03-04T08:05:44.456Z,12.70
2023-03-04T08:11:01.384Z,19.08
2023-03-04T08:13:38.141Z,11.52
2023-03-04T08:16:11.730Z,16.88
2023-03-04T08:18:48.556Z,15.80
2023-03-04T08:21:25.336Z,18.60
2023-03-04T08:23:52.580Z,16.70
2023-03-04T08:26:51.635Z,12.43
2023-03-04T08:29:33.689Z,13.32
2023-03-04T08:32:15.755Z,17.40
2023-03-04T08:34:53.519Z,17.33
2023-03-04T08:37:23.671Z,15.63
2023-03-04T08:39:56.717Z,10.57
2023-03-04T08:42:38.803Z,14.63
2023-03-04T08:45:08.982Z,15.60
2023-03-04T08:47:40.682Z,7.80
2023-03-04T08:50:11.534Z,16.05
2023-03-04T08:52:53.659Z,13.32
2023-03-04T08:59:56.055Z,12.90
2023-03-04T09:02:41.174Z,18.05
2023-03-04T09:05:19.699Z,20.48
2023-03-04T09:07:52.209Z,16.45
2023-03-04T09:11:27.963Z,10.85
2023-03-04T09:14:10.164Z,14.57
2023-03-04T09:16:37.006Z,12.82
2023-03-04T09:19:15.405Z,12.68
2023-03-04T09:21:55.830Z,18.30
2023-03-04T09:24:26.957Z,16.27
2023-03-04T09:26:57.188Z,14.20
2023-03-04T09:29:54.781Z,17.60
2023-03-04T11:38:47.837Z,15.00
2023-03-04T12:44:20.740Z,10.52
2023-03-04T12:47:50.549Z,12.27
2023-03-04T12:50:38.524Z,10.90
2023-03-04T12:53:45.557Z,12.10
2023-03-04T12:56:50.630Z,8.40
2023-03-04T12:59:23.806Z,13.88
2023-03-04T13:02:07.362Z,7.75
2023-03-04T13:05:19.680Z,9.13
2023-03-04T13:08:06.724Z,9.30
2023-03-04T13:10:42.245Z,7.85
2023-03-04T13:13:42.896Z,4.72
2023-03-04T13:16:22.205Z,7.60
2023-03-04T13:18:49.421Z,6.30
2023-03-04T13:21:32.332Z,5.40
2023-03-04T13:24:50.214Z,6.40
2023-03-04T13:28:18.433Z,7.18
2023-03-04T13:31:01.162Z,5.55
2023-03-04T13:33:27.813Z,6.47
2023-03-04T13:36:01.986Z,5.82
2023-03-04T13:41:12.151Z,6.80
2023-03-04T13:44:26.142Z,6.50
2023-03-04T13:46:52.982Z,5.28
2023-03-04T13:49:25.388Z,4.30
2023-03-04T13:51:52.850Z,5.22
2023-03-04T13:54:19.572Z,5.50
2023-03-04T13:57:22.500Z,6.40
2023-03-04T14:00:00.999Z,7.50
2023-03-04T14:02:35.060Z,6.47
2023-03-04T14:05:07.380Z,5.85
2023-03-04T14:07:37.494Z,5.90
2023-03-04T14:10:12.244Z,6.28
2023-03-04T14:12:54.182Z,7.03
2023-03-04T14:15:35.513Z,3.90
2023-03-04T14:18:22.845Z,5.53
2023-03-04T14:21:03.590Z,5.35
2023-03-04T14:23:36.302Z,5.00
2023-03-04T14:26:17.720Z,4.80
2023-03-04T14:28:56.654Z,4.72
2023-03-04T14:31:38.600Z,5.40
2023-03-04T14:34:33.610Z,5.55
2023-03-04T14:39:37.086Z,3.63
2023-03-04T14:42:26.876Z,4.67
2023-03-04T14:45:08.213Z,4.45
2023-03-04T14:47:52.256Z,8.57
2023-03-04T14:50:21.909Z,6.55
2023-03-04T14:53:11.289Z,9.00
2023-03-04T14:55:38.135Z,3.88
2023-03-04T14:58:28.196Z,5.57
2023-03-04T15:01:14.948Z,7.68
2023-03-04T15:03:57.110Z,7.55
2023-03-04T15:06:30.146Z,5.68
2023-03-04T15:09:25.139Z,3.88
2023-03-04T15:15:00.708Z,5.35
2023-03-04T15:17:47.524Z,5.50
2023-03-04T15:20:30.233Z,3.35
2023-03-04T15:23:07.329Z,3.28
2023-03-04T15:25:36.171Z,3.35
2023-03-04T15:28:04.601Z,2.65
2023-03-04T15:30:41.998Z,2.88
2023-03-04T15:33:14.695Z,3.75
2023-03-04T15:36:18.771Z,4.07
2023-03-04T15:38:51.633Z,4.18
2023-03-04T15:41:28.259Z,3.42
2023-03-04T15:43:55.366Z,4.35
2023-03-04T15:46:23.133Z,3.17
2023-03-04T15:48:50.228Z,3.00
2023-03-04T15:51:23.890Z,3.25
2023-03-04T15:53:56.998Z,4.25
2023-03-04T15:56:31.005Z,4.25
2023-03-04T15:59:22.603Z,3.42
2023-03-04T16:01:52.417Z,5.40
2023-03-04T16:04:23.166Z,3.35
2023-03-04T16:06:52.891Z,5.97
2023-03-04T16:09:21.644Z,4.78
2023-03-04T16:11:48.589Z,6.03
2023-03-04T16:14:17.194Z,3.97
2023-03-04T16:16:44.648Z,4.20
2023-03-04T16:19:17.208Z,6.00
2023-03-04T16:21:44.024Z,4.75
2023-03-04T16:24:21.929Z,46.95
2023-03-04T16:26:52.107Z,29.42
2023-03-04T16:29:18.754Z,6.97
2023-03-04T16:31:48.453Z,5.47
2023-03-04T16:34:15.159Z,3.63
2023-03-04T16:36:42.225Z,9.07
2023-03-04T16:39:23.097Z,9.18
2023-03-04T16:41:55.005Z,6.18
2023-03-04T16:44:21.751Z,4.80
2023-03-04T16:46:53.168Z,4.13
2023-03-04T16:49:19.869Z,4.20
2023-03-04T16:51:51.081Z,6.30
2023-03-04T16:54:30.493Z,5.18
2023-03-04T16:56:59.454Z,4.10
2023-03-04T16:59:29.519Z,5.75
2023-03-04T17:01:56.893Z,5.10
2023-03-04T17:04:31.765Z,6.22
2023-03-04T17:06:58.514Z,5.07
2023-03-04T17:09:25.196Z,4.82
2023-03-04T17:11:53.105Z,3.85
2023-03-04T19:06:47.939Z,4.80
2023-03-04T19:50:14.708Z,6.63
2023-03-04T19:52:44.585Z,7.45
2023-03-04T19:55:14.781Z,8.15
2023-03-04T19:57:44.670Z,5.60
2023-03-04T20:00:23.410Z,5.47
2023-03-04T20:02:50.691Z,6.20
2023-03-04T20:05:23.252Z,5.47
2023-03-04T20:07:49.940Z,6.13
2023-03-04T20:10:22.885Z,6.25
2023-03-04T20:12:49.617Z,5.00
2023-03-04T20:15:16.244Z,7.88
2023-03-04T20:17:51.765Z,6.25
2023-03-04T20:20:19.067Z,7.93
2023-03-04T20:22:47.280Z,6.25
2023-03-04T20:25:14.021Z,7.68
2023-03-04T20:27:43.782Z,6.13
2023-03-04T20:30:13.196Z,6.68
2023-03-04T20:32:43.397Z,4.38
2023-03-04T20:35:14.081Z,8.75
2023-03-04T20:37:47.205Z,6.38
2023-03-04T20:42:48.029Z,9.73
2023-03-04T20:45:14.853Z,7.30
2023-03-04T20:47:44.873Z,4.93
2023-03-04T20:50:12.022Z,6.65
2023-03-04T20:52:47.788Z,5.60
2023-03-04T20:55:14.769Z,10.25
2023-03-04T20:58:04.244Z,9.50
2023-03-04T21:00:42.278Z,6.10
2023-03-04T21:03:12.221Z,5.35
2023-03-04T21:05:38.968Z,6.55
2023-03-04T21:08:06.217Z,9.70
2023-03-04T21:10:35.975Z,6.28
2023-03-04T21:13:02.711Z,7.35
2023-03-04T21:15:29.381Z,6.50
2023-03-04T21:17:56.050Z,9.98
2023-03-04T21:20:23.131Z,5.88
2023-03-04T21:22:49.766Z,9.40
2023-03-04T21:25:18.257Z,5.63
2023-03-04T21:27:44.929Z,5.72
2023-03-04T21:30:20.437Z,7.72
2023-03-04T21:32:52.447Z,5.80
2023-03-04T21:35:20.107Z,4.97
2023-03-04T21:37:47.155Z,6.72
2023-03-04T21:40:13.843Z,6.82
2023-03-04T21:42:46.341Z,5.25
2023-03-04T21:45:16.351Z,8.43
2023-03-04T21:47:46.358Z,6.07
2023-03-04T21:50:17.962Z,5.15
2023-03-04T21:52:46.966Z,12.35
2023-03-04T21:55:16.085Z,5.25
2023-03-04T21:57:48.241Z,6.93
2023-03-04T22:00:16.732Z,12.27
2023-03-04T22:02:46.221Z,12.85
2023-03-04T22:05:18.741Z,5.82
2023-03-04T22:07:45.800Z,7.00
2023-03-04T22:10:16.235Z,7.15
2023-03-04T22:12:46.181Z,5.57
2023-03-04T22:15:15.317Z,7.63
2023-03-04T22:17:45.953Z,8.20
2023-03-04T22:20:19.287Z,6.13
2023-03-04T22:22:49.191Z,6.32
2023-03-04T22:25:15.913Z,8.02
2023-03-04T22:27:42.664Z,11.15
2023-03-04T22:30:10.616Z,8.27
2023-03-04T22:32:37.360Z,6.55
2023-03-04T22:35:04.731Z,6.50
2023-03-04T22:37:34.462Z,8.18
2023-03-04T22:40:02.153Z,8.15
2023-03-04T22:42:28.873Z,6.32
2023-03-04T22:44:55.994Z,8.52
2023-03-04T22:47:22.772Z,6.07
2023-03-04T22:49:49.663Z,6.78
2023-03-04T22:52:16.752Z,7.80
2023-03-04T22:54:48.241Z,5.95
2023-03-04T22:57:21.391Z,10.38
2023-03-04T22:59:48.878Z,10.00
2023-03-04T23:02:16.503Z,6.50
2023-03-04T23:04:43.162Z,9.45
2023-03-04T23:07:09.866Z,8.23
2023-03-04T23:09:36.648Z,8.90
2023-03-04T23:12:03.719Z,6.53
2023-03-04T23:14:30.451Z,5.45
2023-03-04T23:16:57.228Z,9.48
2023-03-04T23:19:23.929Z,5.75
2023-03-04T23:21:50.594Z,9.27
2023-03-04T23:24:17.512Z,5.38
2023-03-04T23:26:46.035Z,8.05
2023-03-04T23:29:17.121Z,6.65
2023-03-04T23:31:44.561Z,6.60
2023-03-04T23:34:14.316Z,9.93
2023-03-04T23:36:52.858Z,7.95
2023-03-04T23:39:19.886Z,6.10
2023-03-04T23:41:51.754Z,10.50
2023-03-04T23:44:18.482Z,6.80
2023-03-04T23:46:45.388Z,8.23
2023-03-04T23:49:18.006Z,7.85
2023-03-04T23:51:48.157Z,5.80
2023-03-04T23:54:15.523Z,5.32
2023-03-04T23:56:45.327Z,4.93
2023-03-04T23:59:15.961Z,6.18
